Time;durP1;ratioP1;P1;durP2;ratioP2;P2;SDS_P1;SDS_P2;PMS_P1;PMS_P2;Temp;Humidity;BMP_temperature;BMP_pressure;BME280_temperature;BME280_humidity;BME280_pressure;Samples;Min_cycle;Max_cycle;Signal;HPM_P1;HPM_P2
2021/10/23 00:00:58;;;;;;;;;4.50;2.50;;;;;12.66;66.39;102384.38;4952656;28;45298;-59
2021/10/23 00:03:23;;;;;;;;;7.50;6.50;;;;;12.67;66.30;102386.97;4948500;28;45302;-59
2021/10/23 00:05:49;;;;;;;;;11.25;9.00;;;;;12.67;66.10;102370.25;4939686;28;45547;-60
2021/10/23 00:08:14;;;;;;;;;9.75;8.00;;;;;12.66;66.14;102379.97;4940471;28;45338;-58
2021/10/23 00:10:40;;;;;;;;;6.00;6.00;;;;;12.66;66.00;102381.75;4940391;28;45342;-58
2021/10/23 00:13:05;;;;;;;;;10.50;8.00;;;;;12.65;66.05;102386.16;4940854;28;45715;-58
2021/10/23 00:15:31;;;;;;;;;9.50;7.75;;;;;12.63;66.40;102393.28;4940887;28;46180;-58
2021/10/23 00:17:57;;;;;;;;;9.00;6.25;;;;;12.64;66.08;102395.03;4943271;28;45233;-58
2021/10/23 00:20:23;;;;;;;;;7.50;7.50;;;;;12.64;65.93;102389.75;4942917;28;45244;-58
2021/10/23 00:22:49;;;;;;;;;10.75;8.25;;;;;12.64;65.90;102386.22;4943140;28;45449;-58
2021/10/23 00:25:15;;;;;;;;;11.25;5.00;;;;;12.62;65.84;102383.63;4942890;28;45255;-58
2021/10/23 00:27:40;;;;;;;;;8.50;6.50;;;;;12.64;65.83;102391.50;4942541;28;45330;-59
2021/10/23 00:30:06;;;;;;;;;8.25;6.25;;;;;12.64;65.83;102388.84;4942961;28;45386;-59
2021/10/23 00:32:32;;;;;;;;;9.25;8.25;;;;;12.65;65.92;102385.31;4942994;28;45438;-58
2021/10/23 00:34:58;;;;;;;;;8.75;5.00;;;;;12.65;65.84;102396.75;4942543;28;45289;-58
2021/10/23 00:37:23;;;;;;;;;8.00;7.00;;;;;12.65;65.68;102401.19;4942518;28;45388;-59
2021/10/23 00:39:49;;;;;;;;;9.50;6.50;;;;;12.65;65.79;102395.88;4942288;28;45314;-58
2021/10/23 00:42:14;;;;;;;;;11.25;8.00;;;;;12.66;65.73;102397.59;4942889;28;45351;-59
2021/10/23 00:44:42;;;;;;;;;7.00;5.00;;;;;12.67;65.88;102394.91;4942478;28;46120;-59
2021/10/23 00:47:13;;;;;;;;;10.50;5.00;;;;;12.68;65.57;102390.47;4942503;28;45231;-58
2021/10/23 00:49:40;;;;;;;;;4.50;4.50;;;;;12.68;65.63;102393.09;4942778;28;45259;-59
2021/10/23 00:52:07;;;;;;;;;5.75;5.75;;;;;12.68;64.97;102395.75;4941256;28;45585;-59
2021/10/23 00:54:34;;;;;;;;;6.25;5.00;;;;;12.67;65.63;102400.19;4942344;28;45375;-59
2021/10/23 00:57:00;;;;;;;;;6.00;5.00;;;;;12.68;65.54;102398.38;4942177;28;45392;-59
2021/10/23 00:59:26;;;;;;;;;7.50;6.75;;;;;12.66;65.40;102392.31;4942497;28;45450;-58
2021/10/23 01:01:53;;;;;;;;;6.00;5.00;;;;;12.64;65.41;102400.31;4942633;28;45449;-58
2021/10/23 01:04:20;;;;;;;;;8.00;5.50;;;;;12.63;65.25;102395.94;4942356;28;45363;-59
2021/10/23 01:06:46;;;;;;;;;4.00;4.00;;;;;12.63;65.18;102393.28;4942388;28;45172;-59
2021/10/23 01:09:14;;;;;;;;;6.25;3.00;;;;;12.64;65.34;102388.84;4942378;28;45300;-58
2021/10/23 01:11:40;;;;;;;;;5.00;4.00;;;;;12.63;65.20;102385.34;4942482;28;45215;-59
2021/10/23 01:14:14;;;;;;;;;9.00;8.00;;;;;12.62;65.16;102396.00;4941946;28;45392;-59
2021/10/23 01:16:43;;;;;;;;;9.75;7.50;;;;;12.60;65.02;102384.63;4942492;28;45471;-59
2021/10/23 01:19:10;;;;;;;;;6.50;5.75;;;;;12.57;65.13;102386.50;4942222;28;45437;-58
2021/10/23 01:21:36;;;;;;;;;4.50;4.50;;;;;12.57;65.25;102383.84;4943518;28;45424;-59
2021/10/23 01:24:04;;;;;;;;;7.50;4.75;;;;;12.57;65.34;102389.13;4945376;28;45909;-59
2021/10/23 01:26:29;;;;;;;;;5.75;4.25;;;;;12.58;65.09;102387.34;4945759;28;45355;-59
2021/10/23 01:28:55;;;;;;;;;9.50;5.50;;;;;12.58;65.35;102382.91;4945269;28;45476;-59
2021/10/23 01:31:20;;;;;;;;;5.50;4.75;;;;;12.62;65.23;102377.50;4945751;28;45342;-59
2021/10/23 01:33:46;;;;;;;;;7.50;5.75;;;;;12.62;65.21;102381.00;4945310;28;45314;-59
2021/10/23 01:36:18;;;;;;;;;5.00;5.00;;;;;12.61;65.04;102373.13;4945624;28;45330;-59
2021/10/23 01:38:45;;;;;;;;;8.75;5.00;;;;;12.61;64.98;102368.69;4945424;28;45223;-59
2021/10/23 01:41:11;;;;;;;;;10.00;4.50;;;;;12.63;65.21;102360.69;4945471;28;45484;-59
2021/10/23 01:43:38;;;;;;;;;8.75;6.00;;;;;12.63;64.71;102372.13;4945065;28;45465;-59
2021/10/23 01:46:04;;;;;;;;;8.50;4.50;;;;;12.65;64.89;102364.16;4945459;28;45445;-59
2021/10/23 01:48:32;;;;;;;;;11.50;7.50;;;;;12.66;64.93;102363.22;4945049;28;45447;-59
2021/10/23 01:50:58;;;;;;;;;8.00;7.00;;;;;12.65;64.86;102358.88;4945588;28;45380;-59
2021/10/23 01:53:24;;;;;;;;;4.25;2.00;;;;;12.66;64.77;102360.59;4944917;28;45236;-61
2021/10/23 01:55:51;;;;;;;;;8.75;8.00;;;;;12.64;64.80;102360.66;4945343;28;45335;-59
2021/10/23 01:58:17;;;;;;;;;6.50;4.00;;;;;12.63;64.65;102360.69;4944958;28;45429;-58
2021/10/23 02:00:42;;;;;;;;;6.50;5.00;;;;;12.62;64.98;102364.28;4960077;28;45283;-59
2021/10/23 02:03:08;;;;;;;;;4.75;4.00;;;;;12.60;64.60;102367.00;4944920;28;46049;-59
2021/10/23 02:05:33;;;;;;;;;5.00;5.00;;;;;12.60;64.44;102360.84;4944964;28;45347;-59
2021/10/23 02:07:59;;;;;;;;;6.25;4.75;;;;;12.56;64.58;102360.97;4945106;28;45375;-59
2021/10/23 02:10:24;;;;;;;;;8.25;5.25;;;;;12.55;64.63;102355.72;4945242;28;45299;-58
2021/10/23 02:12:50;;;;;;;;;10.00;5.00;;;;;12.54;64.58;102343.44;4944537;28;45353;-59
2021/10/23 02:15:15;;;;;;;;;6.25;4.00;;;;;12.51;64.51;102348.88;4945240;28;45268;-59
2021/10/23 02:17:41;;;;;;;;;8.00;4.75;;;;;12.49;64.62;102348.94;4945006;28;45564;-59
2021/10/23 02:20:09;;;;;;;;;9.50;8.50;;;;;12.49;64.55;102348.94;4945109;28;45243;-59
2021/10/23 02:22:36;;;;;;;;;10.00;5.75;;;;;12.51;64.70;102340.94;4944652;28;45409;-59
2021/10/23 02:25:02;;;;;;;;;9.25;5.00;;;;;12.52;64.77;102343.50;4944806;28;45333;-59
2021/10/23 02:27:27;;;;;;;;;7.50;5.50;;;;;12.51;64.94;102335.66;4944078;28;45367;-59
2021/10/23 02:29:53;;;;;;;;;7.00;5.50;;;;;12.53;64.98;102334.66;4943736;28;45391;-59
2021/10/23 02:32:19;;;;;;;;;10.00;8.00;;;;;12.54;64.98;102340.78;4944416;28;46042;-58
2021/10/23 02:34:44;;;;;;;;;5.00;5.00;;;;;12.55;65.13;102339.88;4944794;28;45350;-59
2021/10/23 02:37:10;;;;;;;;;3.00;3.00;;;;;12.56;65.06;102339.84;4944450;28;45403;-59
2021/10/23 02:39:35;;;;;;;;;7.25;6.00;;;;;12.57;65.04;102338.91;4944520;28;45478;-58
2021/10/23 02:42:01;;;;;;;;;5.50;5.50;;;;;12.56;64.95;102338.97;4944054;28;45244;-59
2021/10/23 02:44:27;;;;;;;;;4.25;4.00;;;;;12.57;64.93;102345.97;4944724;28;45218;-59
2021/10/23 02:46:52;;;;;;;;;7.75;5.00;;;;;12.56;64.58;102347.75;4940597;28;45338;-59
2021/10/23 02:49:18;;;;;;;;;5.00;5.00;;;;;12.55;64.38;102347.81;4944445;28;45247;-59
2021/10/23 02:51:44;;;;;;;;;7.25;6.25;;;;;12.53;64.50;102342.59;4944093;28;45323;-59
2021/10/23 02:54:10;;;;;;;;;10.75;4.00;;;;;12.52;64.51;102342.66;4944202;28;45479;-59
2021/10/23 02:56:36;;;;;;;;;3.75;2.50;;;;;12.54;65.16;102344.31;4944276;28;45407;-59
2021/10/23 02:59:02;;;;;;;;;7.25;4.00;;;;;12.56;65.14;102344.25;4944352;28;45568;-59
2021/10/23 03:01:27;;;;;;;;;9.50;7.50;;;;;12.58;64.85;102360.91;4944111;28;45326;-59
2021/10/23 03:03:53;;;;;;;;;5.00;4.25;;;;;12.58;64.99;102352.97;4944334;28;45351;-59
2021/10/23 03:06:18;;;;;;;;;8.75;5.25;;;;;12.59;64.78;102354.69;4944176;28;45419;-59
2021/10/23 03:08:45;;;;;;;;;8.00;5.00;;;;;12.60;65.15;102353.75;4944257;28;45271;-58
2021/10/23 03:11:11;;;;;;;;;5.25;5.00;;;;;12.62;64.86;102351.91;4943953;28;45335;-59
2021/10/23 03:13:37;;;;;;;;;6.75;5.50;;;;;12.63;64.80;102348.34;4943903;28;45323;-59
2021/10/23 03:16:03;;;;;;;;;10.50;5.00;;;;;12.64;64.85;102346.56;4944146;28;45365;-58
2021/10/23 03:18:28;;;;;;;;;6.50;5.00;;;;;12.64;65.12;102347.44;4944205;28;45488;-59
2021/10/23 03:20:54;;;;;;;;;11.00;8.00;;;;;12.63;64.96;102345.69;4943817;28;45278;-59
2021/10/23 03:23:20;;;;;;;;;7.00;5.00;;;;;12.61;65.07;102349.34;4944511;28;45227;-59
2021/10/23 03:25:46;;;;;;;;;3.50;1.75;;;;;12.61;65.18;102351.97;4944087;28;45487;-59
2021/10/23 03:28:14;;;;;;;;;7.00;3.50;;;;;12.62;65.25;102353.69;4944024;28;45423;-59
2021/10/23 03:30:39;;;;;;;;;5.25;5.25;;;;;12.60;65.49;102353.75;4943534;28;45983;-59
2021/10/23 03:33:05;;;;;;;;;6.00;6.00;;;;;12.58;65.20;102351.19;4943980;28;45251;-59
2021/10/23 03:35:31;;;;;;;;;7.00;5.00;;;;;12.58;64.77;102350.34;4943785;28;45560;-59
2021/10/23 03:37:57;;;;;;;;;5.00;4.00;;;;;12.57;64.95;102352.13;4943683;28;45162;-59
2021/10/23 03:40:23;;;;;;;;;9.00;8.00;;;;;12.55;64.70;102348.66;4943266;28;45256;-59
2021/10/23 03:42:48;;;;;;;;;9.75;6.25;;;;;12.54;64.74;102348.72;4943420;28;45278;-59
2021/10/23 03:45:14;;;;;;;;;9.00;5.00;;;;;12.53;64.67;102352.31;4943065;28;45335;-59
2021/10/23 03:47:40;;;;;;;;;8.50;6.25;;;;;12.53;64.72;102339.94;4943693;28;45240;-59
2021/10/23 03:50:06;;;;;;;;;9.25;4.25;;;;;12.53;64.69;102344.38;4943292;28;46219;-60
2021/10/23 03:52:32;;;;;;;;;8.00;5.00;;;;;12.52;64.74;102343.50;4943408;28;45331;-59
2021/10/23 03:54:58;;;;;;;;;7.25;6.00;;;;;12.51;64.44;102349.72;4943259;28;45457;-59
2021/10/23 03:57:23;;;;;;;;;9.75;7.75;;;;;12.48;64.48;102336.66;4943464;28;45414;-59
2021/10/23 03:59:49;;;;;;;;;9.50;8.50;;;;;12.49;64.46;102340.16;4943149;28;46157;-60
2021/10/23 04:02:15;;;;;;;;;8.00;3.00;;;;;12.51;64.52;102339.16;4942116;28;45259;-59
2021/10/23 04:04:40;;;;;;;;;8.00;5.50;;;;;12.49;64.42;102338.38;4943273;28;45265;-59
2021/10/23 04:07:06;;;;;;;;;5.00;5.00;;;;;12.49;64.63;102333.09;4943441;28;45231;-59
2021/10/23 04:09:31;;;;;;;;;5.25;5.25;;;;;12.50;64.51;102331.28;4942781;28;45389;-59
2021/10/23 04:11:57;;;;;;;;;6.50;5.50;;;;;12.51;64.53;102340.94;4943056;28;45156;-59
2021/10/23 04:14:23;;;;;;;;;4.00;3.25;;;;;12.50;64.27;102336.59;4943496;28;45528;-60
2021/10/23 04:16:48;;;;;;;;;5.00;5.00;;;;;12.50;64.30;102342.72;4943346;28;45300;-60
2021/10/23 04:19:14;;;;;;;;;8.75;3.00;;;;;12.48;64.21;102336.66;4942848;28;46079;-59
2021/10/23 04:21:39;;;;;;;;;6.75;5.00;;;;;12.49;64.13;102340.16;4943040;28;45282;-59
2021/10/23 04:24:05;;;;;;;;;5.50;5.50;;;;;12.49;64.38;102335.72;4942614;28;45620;-60
2021/10/23 04:26:31;;;;;;;;;7.00;7.00;;;;;12.49;64.06;102338.38;4943180;28;45413;-59
2021/10/23 04:28:56;;;;;;;;;7.50;6.00;;;;;12.48;64.04;102334.00;4942529;28;45966;-59
2021/10/23 04:31:22;;;;;;;;;10.75;5.50;;;;;12.51;64.36;102338.28;4947488;28;45373;-60
2021/10/23 04:33:48;;;;;;;;;8.00;4.75;;;;;12.53;63.88;102334.66;4947322;28;45311;-57
2021/10/23 04:36:13;;;;;;;;;7.75;6.00;;;;;12.54;64.02;102336.38;4942981;28;45400;-57
2021/10/23 04:38:39;;;;;;;;;9.00;6.25;;;;;12.53;63.77;102334.66;4942321;28;45448;-57
2021/10/23 04:41:05;;;;;;;;;5.25;4.50;;;;;12.51;64.18;102336.50;4942389;28;45370;-56
2021/10/23 04:43:31;;;;;;;;;7.50;4.25;;;;;12.49;64.40;102329.56;4942520;28;46477;-57
2021/10/23 04:45:56;;;;;;;;;5.25;3.25;;;;;12.48;64.00;102339.28;4943090;28;45215;-57
2021/10/23 04:48:22;;;;;;;;;4.75;4.75;;;;;12.48;64.12;102343.69;4938468;28;45348;-57
2021/10/23 04:50:47;;;;;;;;;5.00;5.00;;;;;12.44;64.21;102347.41;4942584;28;45369;-57
2021/10/23 04:53:13;;;;;;;;;7.00;5.00;;;;;12.44;64.05;102340.34;4942545;28;45450;-58
2021/10/23 04:55:38;;;;;;;;;5.75;4.75;;;;;12.44;63.96;102334.19;4942033;28;45281;-57
2021/10/23 04:58:04;;;;;;;;;4.75;4.00;;;;;12.45;64.13;102342.03;4941907;28;45776;-57
2021/10/23 05:00:29;;;;;;;;;8.00;5.00;;;;;12.46;64.09;102349.03;4942554;28;45353;-57
2021/10/23 05:02:55;;;;;;;;;7.75;6.50;;;;;12.48;64.21;102346.34;4942557;28;45311;-57
2021/10/23 05:05:20;;;;;;;;;5.50;4.50;;;;;12.49;64.08;102351.59;4942515;28;45332;-57
2021/10/23 05:07:46;;;;;;;;;6.50;4.00;;;;;12.48;64.17;102351.63;4942441;28;46309;-57
2021/10/23 05:10:13;;;;;;;;;7.75;6.00;;;;;12.46;64.14;102349.03;4942295;28;45338;-57
2021/10/23 05:12:39;;;;;;;;;9.00;5.00;;;;;12.44;63.91;102356.19;4942114;28;45320;-57
2021/10/23 05:15:06;;;;;;;;;5.25;4.25;;;;;12.46;64.00;102356.97;4942655;28;45314;-57
2021/10/23 05:17:32;;;;;;;;;7.75;4.25;;;;;12.47;64.43;102357.84;4942091;28;45231;-56
2021/10/23 05:19:57;;;;;;;;;7.00;3.50;;;;;12.49;64.23;102362.16;4942506;28;45231;-57
2021/10/23 05:22:23;;;;;;;;;8.00;5.00;;;;;12.47;63.86;102361.34;4942401;28;45529;-57
2021/10/23 05:24:48;;;;;;;;;11.00;6.25;;;;;12.49;63.91;102361.28;4942240;28;45325;-57
2021/10/23 05:27:14;;;;;;;;;8.50;5.00;;;;;12.48;63.97;102357.78;4941958;28;46070;-57
2021/10/23 05:29:40;;;;;;;;;4.25;4.00;;;;;12.48;63.93;102362.19;4942065;28;45218;-57
2021/10/23 05:32:06;;;;;;;;;5.50;4.25;;;;;12.47;64.29;102357.84;4942178;28;45565;-57
2021/10/23 05:34:31;;;;;;;;;6.25;5.00;;;;;12.47;64.12;102355.19;4942249;28;45434;-57
2021/10/23 05:36:57;;;;;;;;;10.00;6.25;;;;;12.47;64.21;102352.53;4941950;28;45292;-57
2021/10/23 05:39:22;;;;;;;;;10.50;5.50;;;;;12.46;64.15;102359.63;4941887;28;45366;-57
2021/10/23 05:41:48;;;;;;;;;7.50;4.75;;;;;12.46;64.10;102356.97;4941990;28;45413;-57
2021/10/23 05:44:14;;;;;;;;;5.00;4.75;;;;;12.47;64.21;102356.06;4942298;28;45490;-57
2021/10/23 05:46:39;;;;;;;;;8.75;5.25;;;;;12.47;64.14;102355.19;4941837;28;45744;-58
2021/10/23 05:49:05;;;;;;;;;7.00;6.00;;;;;12.46;64.09;102349.03;4941780;28;45378;-57
2021/10/23 05:51:31;;;;;;;;;4.25;3.25;;;;;12.44;64.05;102350.91;4942083;28;45251;-57
2021/10/23 05:53:56;;;;;;;;;10.00;4.00;;;;;12.41;64.03;102355.47;4941982;28;45243;-57
2021/10/23 05:56:21;;;;;;;;;4.75;4.75;;;;;12.40;64.22;102362.53;4941604;28;45939;-57
2021/10/23 05:58:47;;;;;;;;;5.00;3.00;;;;;12.41;64.37;102364.25;4937719;28;45373;-57
2021/10/23 06:01:13;;;;;;;;;5.25;4.25;;;;;12.41;64.36;102358.97;4941532;28;45456;-56
2021/10/23 06:03:39;;;;;;;;;7.00;5.00;;;;;12.40;64.28;102370.47;4940695;28;45495;-57
2021/10/23 06:06:08;;;;;;;;;4.50;4.00;;;;;12.41;64.31;102364.25;4941430;28;46211;-52
2021/10/23 06:08:35;;;;;;;;;4.00;4.00;;;;;12.39;64.32;102357.28;4943237;28;45333;-56
2021/10/23 06:11:01;;;;;;;;;9.00;5.75;;;;;12.41;64.50;102366.91;4945053;28;45207;-57
2021/10/23 06:13:26;;;;;;;;;9.00;7.00;;;;;12.44;64.37;102372.03;4944339;28;45302;-59
2021/10/23 06:15:52;;;;;;;;;6.00;4.00;;;;;12.45;64.49;102370.25;4944379;28;45338;-57
2021/10/23 06:18:18;;;;;;;;;6.00;2.00;;;;;12.46;64.60;102379.91;4943466;28;45417;-57
2021/10/23 06:20:45;;;;;;;;;10.00;4.25;;;;;12.49;64.88;102374.50;4944682;28;45517;-57
2021/10/23 06:23:11;;;;;;;;;8.75;5.50;;;;;12.49;64.15;102371.88;4944842;28;45423;-57
2021/10/23 06:25:37;;;;;;;;;8.50;5.00;;;;;12.53;64.83;102378.72;4944491;28;45461;-57
2021/10/23 06:28:03;;;;;;;;;5.00;5.00;;;;;12.53;64.67;102386.66;4944188;28;45325;-57
2021/10/23 06:30:29;;;;;;;;;5.50;5.50;;;;;12.53;64.48;102384.03;4944362;28;45405;-57
2021/10/23 06:32:57;;;;;;;;;10.75;5.00;;;;;12.53;64.51;102392.81;4943564;28;45396;-57
2021/10/23 06:35:23;;;;;;;;;10.75;5.00;;;;;12.52;64.51;102391.09;4944263;28;45291;-56
2021/10/23 06:37:49;;;;;;;;;5.75;4.50;;;;;12.52;64.43;102395.53;4944374;28;45310;-57
2021/10/23 06:40:15;;;;;;;;;6.75;4.75;;;;;12.53;64.67;102394.59;4944250;28;45324;-57
2021/10/23 06:42:41;;;;;;;;;7.00;5.00;;;;;12.55;64.62;102398.88;4944194;28;45516;-57
2021/10/23 06:45:10;;;;;;;;;9.50;7.50;;;;;12.56;64.85;102402.41;4944141;28;46275;-57
2021/10/23 06:47:36;;;;;;;;;7.25;5.50;;;;;12.55;64.59;102404.16;4944294;28;45467;-57
2021/10/23 06:50:04;;;;;;;;;5.00;5.00;;;;;12.56;64.80;102407.69;4938215;28;45244;-57
2021/10/23 06:52:29;;;;;;;;;6.00;4.00;;;;;12.58;64.63;102406.72;4944058;28;45247;-57
2021/10/23 06:54:55;;;;;;;;;7.00;6.00;;;;;12.63;64.59;102408.28;4943763;28;46353;-57
2021/10/23 06:57:20;;;;;;;;;10.75;5.25;;;;;12.65;64.88;102406.47;4943636;28;45440;-57
2021/10/23 06:59:46;;;;;;;;;4.75;3.25;;;;;12.66;64.28;102413.47;4944043;28;45462;-57
2021/10/23 07:02:11;;;;;;;;;10.00;6.00;;;;;12.67;64.13;102418.69;4943998;28;45461;-58
2021/10/23 07:04:37;;;;;;;;;5.50;5.50;;;;;12.68;64.20;102415.13;4940773;28;45979;-59
2021/10/23 07:07:02;;;;;;;;;5.00;3.75;;;;;12.69;64.16;102426.53;4939696;28;45417;-59
2021/10/23 07:09:28;;;;;;;;;4.50;4.50;;;;;12.69;64.06;102427.41;4943946;28;45251;-59
2021/10/23 07:11:53;;;;;;;;;7.50;4.00;;;;;12.70;63.94;102434.41;4942510;28;45425;-59
2021/10/23 07:14:19;;;;;;;;;5.50;5.00;;;;;12.71;63.81;102443.19;4940880;28;45462;-58
2021/10/23 07:16:45;;;;;;;;;10.75;5.75;;;;;12.72;63.87;102442.31;4943656;28;45278;-58
2021/10/23 07:19:10;;;;;;;;;4.00;4.00;;;;;12.73;63.98;102436.94;4942797;28;45509;-58
2021/10/23 07:21:35;;;;;;;;;5.00;4.00;;;;;12.74;63.81;102448.38;4943613;28;45339;-58
2021/10/23 07:24:01;;;;;;;;;6.75;5.00;;;;;12.78;63.85;102449.97;4943164;28;45242;-58
2021/10/23 07:26:27;;;;;;;;;5.00;5.00;;;;;12.80;63.64;102456.06;4943377;28;45279;-58
2021/10/23 07:28:52;;;;;;;;;5.50;4.00;;;;;12.82;63.89;102451.56;4943430;28;45470;-58
2021/10/23 07:31:18;;;;;;;;;4.50;4.00;;;;;12.84;63.58;102452.38;4943714;28;45399;-58
2021/10/23 07:33:44;;;;;;;;;7.75;5.00;;;;;12.88;63.57;102456.63;4943159;28;45343;-58
2021/10/23 07:36:10;;;;;;;;;8.75;5.00;;;;;12.92;63.66;102463.47;4942968;28;45469;-58
2021/10/23 07:38:37;;;;;;;;;9.75;7.50;;;;;12.97;64.02;102472.09;4943186;28;45403;-58
2021/10/23 07:41:02;;;;;;;;;6.50;5.00;;;;;13.00;63.53;102469.31;4943137;28;45557;-58
2021/10/23 07:43:28;;;;;;;;;5.50;5.00;;;;;13.05;63.51;102469.13;4942856;28;45422;-58
2021/10/23 07:45:53;;;;;;;;;10.75;7.75;;;;;13.07;63.38;102473.44;4938851;28;46034;-58
2021/10/23 07:48:19;;;;;;;;;5.75;5.00;;;;;13.08;63.02;102477.78;4934384;28;45489;-55
2021/10/23 07:50:47;;;;;;;;;8.75;5.75;;;;;13.09;63.09;102476.84;4940750;28;45341;-54
2021/10/23 07:53:13;;;;;;;;;5.50;5.00;;;;;13.11;62.88;102476.78;4942853;28;47507;-54
2021/10/23 07:55:38;;;;;;;;;5.00;5.00;;;;;13.13;62.91;102483.75;4943067;28;45402;-52
2021/10/23 07:58:04;;;;;;;;;9.25;6.00;;;;;13.15;62.79;102486.34;4942918;28;45272;-51
2021/10/23 08:00:30;;;;;;;;;10.00;5.00;;;;;13.14;63.12;102480.19;4943655;28;45548;-51
2021/10/23 08:02:58;;;;;;;;;8.75;6.50;;;;;13.17;63.12;102495.06;4948825;28;45306;-51
2021/10/23 08:05:25;;;;;;;;;5.00;3.50;;;;;13.21;63.14;102493.19;4950272;28;45326;-52
2021/10/23 08:07:52;;;;;;;;;7.75;5.50;;;;;13.25;63.23;102490.34;4933370;28;45456;-52
2021/10/23 08:10:20;;;;;;;;;7.50;5.75;;;;;13.27;62.98;102498.22;4949109;28;45619;-50
2021/10/23 08:12:46;;;;;;;;;7.25;5.00;;;;;13.29;62.81;102501.69;4942878;28;45617;-55
2021/10/23 08:15:12;;;;;;;;;6.50;5.00;;;;;13.34;63.05;102495.22;4942238;28;45436;-50
2021/10/23 08:17:38;;;;;;;;;8.50;5.00;;;;;13.41;62.80;102495.84;4942848;28;45317;-53
2021/10/23 08:20:08;;;;;;;;;5.25;3.25;;;;;13.47;62.85;102492.06;4942713;28;45345;-55
2021/10/23 08:22:34;;;;;;;;;9.75;6.75;;;;;13.49;62.79;102490.22;4942682;28;45394;-54
2021/10/23 08:25:03;;;;;;;;;6.75;5.00;;;;;13.48;62.34;102491.16;4942088;28;45366;-54
2021/10/23 08:27:29;;;;;;;;;6.50;5.00;;;;;13.48;62.36;102494.66;4942262;28;45319;-54
2021/10/23 08:29:54;;;;;;;;;4.00;4.00;;;;;13.51;62.36;102491.88;4942070;28;45501;-56
2021/10/23 08:32:20;;;;;;;;;9.25;4.75;;;;;13.53;62.14;102487.38;4942779;28;45435;-54
2021/10/23 08:34:45;;;;;;;;;6.50;5.25;;;;;13.56;62.47;102491.66;4942420;28;45283;-54
2021/10/23 08:37:12;;;;;;;;;8.50;6.75;;;;;13.63;62.59;102493.97;4942198;28;45632;-51
2021/10/23 08:39:38;;;;;;;;;8.50;6.00;;;;;13.68;62.24;102493.78;4942316;28;45450;-55
2021/10/23 08:42:03;;;;;;;;;9.50;6.00;;;;;13.71;62.34;102498.94;4941683;28;46200;-55
2021/10/23 08:44:31;;;;;;;;;5.00;5.00;;;;;13.72;62.23;102495.34;4940765;28;45342;-53
2021/10/23 08:46:58;;;;;;;;;5.00;4.00;;;;;13.72;62.00;102494.50;4938144;28;45484;-53
2021/10/23 08:49:24;;;;;;;;;8.50;6.00;;;;;13.72;62.15;102495.34;4932715;28;45288;-54
2021/10/23 08:51:51;;;;;;;;;5.75;4.00;;;;;13.72;61.97;102495.34;4941855;28;46052;-57
2021/10/23 08:54:18;;;;;;;;;4.25;3.25;;;;;13.74;62.24;102496.16;4941687;28;46301;-53
2021/10/23 08:56:43;;;;;;;;;5.25;5.25;;;;;13.82;61.79;102495.81;4941423;28;45421;-54
2021/10/23 08:59:09;;;;;;;;;6.25;4.00;;;;;13.89;62.07;102497.25;4942068;28;45789;-54
2021/10/23 09:01:34;;;;;;;;;8.50;5.00;;;;;13.96;61.69;102507.50;4942107;28;46080;-54
2021/10/23 09:04:00;;;;;;;;;6.00;4.00;;;;;14.02;61.55;102509.03;4942143;28;45377;-54
2021/10/23 09:06:38;;;;;;;;;5.00;5.00;;;;;14.07;61.33;102495.56;4938430;28;45392;-54
2021/10/23 09:09:13;;;;;;;;;9.50;7.00;;;;;14.10;61.38;102504.22;4940217;28;45382;-54
2021/10/23 09:11:44;;;;;;;;;8.00;6.00;;;;;14.12;61.52;102507.66;4934563;28;45510;-54
2021/10/23 09:14:20;;;;;;;;;7.25;5.50;;;;;14.13;61.56;102504.09;4936937;28;45433;-54
2021/10/23 09:16:46;;;;;;;;;11.50;10.25;;;;;14.17;61.21;102500.38;4944883;28;45548;-51
2021/10/23 09:19:12;;;;;;;;;7.75;7.00;;;;;14.22;61.07;102492.22;4941406;28;46644;-54
2021/10/23 09:21:38;;;;;;;;;9.00;6.00;;;;;14.27;60.86;102494.63;4941932;28;46173;-52
2021/10/23 09:24:21;;;;;;;;;7.00;7.00;;;;;14.32;61.10;102497.94;4941842;28;45311;-54
2021/10/23 09:26:47;;;;;;;;;9.50;7.00;;;;;14.35;60.96;102490.69;4941503;28;45343;-54
2021/10/23 09:29:23;;;;;;;;;10.75;8.25;;;;;14.38;61.16;102501.19;4941846;28;45430;-53
2021/10/23 09:31:50;;;;;;;;;11.50;9.00;;;;;14.42;60.95;102499.22;4941551;28;45516;-53
2021/10/23 09:34:21;;;;;;;;;7.50;6.00;;;;;14.39;61.00;102499.38;4941464;28;45307;-54
2021/10/23 09:36:52;;;;;;;;;7.25;6.00;;;;;14.40;61.10;102495.78;4945281;28;45403;-51
2021/10/23 09:39:29;;;;;;;;;13.25;8.50;;;;;14.41;61.13;102495.72;4942122;28;45561;-51
2021/10/23 09:42:15;;;;;;;;;8.25;7.25;;;;;14.45;61.21;102492.00;4941250;28;46031;-53
2021/10/23 09:45:04;;;;;;;;;11.75;9.75;;;;;14.47;60.72;102491.94;4954061;28;45312;-55
2021/10/23 09:47:36;;;;;;;;;10.75;10.00;;;;;14.47;60.79;102495.47;4949071;28;45424;-53
2021/10/23 09:50:04;;;;;;;;;10.00;10.00;;;;;14.50;60.93;102492.66;4950784;28;45739;-53
2021/10/23 09:52:33;;;;;;;;;14.50;10.25;;;;;14.52;61.03;102498.72;4953699;28;45526;-51
2021/10/23 09:55:08;;;;;;;;;10.75;10.00;;;;;14.55;60.89;102495.09;4953350;28;45288;-53
2021/10/23 09:57:34;;;;;;;;;13.00;10.25;;;;;14.59;60.84;102491.34;4951624;28;45309;-55
2021/10/23 10:00:08;;;;;;;;;6.25;5.75;;;;;14.62;60.92;102496.53;4953746;28;45378;-56
2021/10/23 10:02:36;;;;;;;;;8.25;6.50;;;;;14.64;60.53;102493.78;4953474;28;46665;-58
2021/10/23 10:05:02;;;;;;;;;8.50;7.25;;;;;14.66;60.56;102484.81;4953813;28;45485;-58
2021/10/23 10:07:28;;;;;;;;;6.00;6.00;;;;;14.69;60.39;102491.75;4949699;28;45266;-59
2021/10/23 10:09:54;;;;;;;;;9.75;5.50;;;;;14.73;60.87;102494.19;4952150;28;45605;-59
2021/10/23 10:12:20;;;;;;;;;10.00;9.25;;;;;14.73;60.64;102488.03;4954002;28;45979;-58
2021/10/23 10:14:46;;;;;;;;;7.00;7.00;;;;;14.78;60.38;102491.34;4955634;28;45287;-58
2021/10/23 10:17:13;;;;;;;;;7.00;6.00;;;;;14.79;60.31;102493.06;4953322;28;45425;-59
2021/10/23 10:19:38;;;;;;;;;8.75;8.75;;;;;14.83;60.39;102493.75;4953370;28;45331;-62
2021/10/23 10:22:08;;;;;;;;;8.50;6.75;;;;;14.82;60.25;102492.03;4952437;28;45977;-61
2021/10/23 10:24:38;;;;;;;;;9.50;6.00;;;;;14.82;59.93;102494.69;4954156;28;45429;-61
2021/10/23 10:27:07;;;;;;;;;7.75;7.75;;;;;14.83;60.05;102497.25;4953966;28;45397;-62
2021/10/23 10:29:42;;;;;;;;;12.50;7.00;;;;;14.86;59.77;102496.28;4954157;28;45314;-61
2021/10/23 10:33:02;;;;;;;;;7.00;6.00;;;;;14.86;59.69;102494.47;4952730;28;45502;-62
2021/10/23 10:43:18;;;;;;;;;5.75;5.00;;;;;14.89;59.75;102493.44;4951071;28;45389;-60
2021/10/23 10:45:46;;;;;;;;;10.00;7.25;;;;;14.95;59.69;102487.84;4953559;28;45283;-60
2021/10/23 10:48:16;;;;;;;;;11.00;7.00;;;;;14.97;59.49;102489.47;4951663;28;45301;-59
2021/10/23 10:50:44;;;;;;;;;11.75;8.75;;;;;15.01;59.68;102484.91;4952178;28;45404;-59
2021/10/23 10:53:19;;;;;;;;;11.50;7.25;;;;;15.06;59.04;102486.38;4951252;28;45501;-60
2021/10/23 10:55:49;;;;;;;;;10.00;8.00;;;;;15.08;59.25;102486.28;4952843;28;45389;-59
2021/10/23 10:58:16;;;;;;;;;6.75;5.25;;;;;15.04;58.74;102490.91;4953280;28;45369;-60
2021/10/23 11:01:02;;;;;;;;;7.25;6.50;;;;;14.99;58.89;102479.63;4952237;28;45343;-60
2021/10/23 11:03:32;;;;;;;;;10.00;8.25;;;;;14.97;59.05;102475.34;4950992;28;46296;-59
2021/10/23 11:06:30;;;;;;;;;7.75;6.25;;;;;14.90;58.97;102468.63;4951997;28;45430;-59
2021/10/23 11:09:11;;;;;;;;;7.50;5.75;;;;;14.86;58.96;102475.03;4952896;28;45564;-58
2021/10/23 11:11:45;;;;;;;;;8.00;8.00;;;;;14.82;59.41;102469.00;4951412;28;45427;-59
2021/10/23 11:14:35;;;;;;;;;6.00;5.75;;;;;14.81;59.10;102469.94;4952713;28;45436;-58
2021/10/23 11:17:01;;;;;;;;;8.25;6.75;;;;;14.77;58.73;102458.66;4950799;28;45338;-59
2021/10/23 11:19:41;;;;;;;;;5.25;5.00;;;;;14.75;58.60;102460.50;4953825;28;45545;-59
2021/10/23 11:22:13;;;;;;;;;4.75;3.25;;;;;14.76;59.00;102456.91;4955216;28;45539;-60
2021/10/23 11:25:05;;;;;;;;;3.50;3.00;;;;;14.80;58.55;102468.25;4952685;28;46007;-60
2021/10/23 11:27:33;;;;;;;;;7.75;7.00;;;;;14.84;58.83;102458.31;4949941;28;45192;-59
2021/10/23 11:30:13;;;;;;;;;11.75;10.50;;;;;14.89;59.00;102461.63;4950330;28;45421;-59
2021/10/23 11:32:41;;;;;;;;;7.75;7.75;;;;;14.97;59.38;102468.25;4952381;28;45507;-58